San Diego, California
Current Conditions -  °F | °C
As of 2:51 PM on Tuesday 21 Oct 2014 (Local Time) from KSAN Reporting Station
Few Clouds Few Clouds  
Wind Chill: 23°   Ceiling: Unl
Heat Index: 23°   Visibility: 10mi
Dew Point: 16°   Wind: 9mph
Humidity: 64%   Direction: 310°NW
Pressure: 29.86"   Gusts: NA
Location:  32.72°N, 117.16°W
Report Text: KSAN 212151Z 31008KT 10SM FEW200 23/16 A2986 RMK AO2 SLP109 T02330161
Loading
Personal Weather Stations






























Interactive Weather Map
Tropical Storm Tracking
New forecast layout! Learn more

10-Day Weather Forecast

Advertisements
Track Severe Weather on mobile